Time;durP1;ratioP1;P1;durP2;ratioP2;P2;SDS_P1;SDS_P2;PMS_P1;PMS_P2;Temp;Humidity;BMP_temperature;BMP_pressure;BME280_temperature;BME280_humidity;BME280_pressure;Samples;Min_cycle;Max_cycle;Signal;HPM_P1;HPM_P2
2022/04/25 00:00:49;;;;;;;;;;;11.70;84.30;;;;;;5030960;28;19970;-74
2022/04/25 00:03:15;;;;;;;;;;;11.60;84.60;;;;;;5029752;28;19921;-73
2022/04/25 00:05:40;;;;;;;;;;;11.50;84.70;;;;;;5031135;28;19909;-74
2022/04/25 00:08:06;;;;;;;;;;;11.50;84.60;;;;;;5031117;28;19909;-74
2022/04/25 00:10:32;;;;;;;;;;;11.60;85.10;;;;;;5031430;28;19917;-74
2022/04/25 00:12:58;;;;;;;;;;;11.50;85.10;;;;;;5030857;28;19917;-74
2022/04/25 00:15:23;;;;;;;;;;;11.50;85.50;;;;;;5030873;28;19929;-74
2022/04/25 00:17:49;;;;;;;;;;;11.50;85.20;;;;;;5030764;28;19909;-74
2022/04/25 00:20:14;;;;;;;;;;;11.40;85.30;;;;;;5035000;28;19917;-74
2022/04/25 00:22:40;;;;;;;;;;;11.50;85.40;;;;;;5035824;28;19956;-74
2022/04/25 00:25:06;;;;;;;;;;;11.40;85.70;;;;;;5034835;28;19975;-74
2022/04/25 00:27:31;;;;;;;;;;;11.40;85.90;;;;;;5034657;28;20016;-73
2022/04/25 00:29:57;;;;;;;;;;;11.40;86.00;;;;;;5033587;28;19959;-73
2022/04/25 00:32:23;;;;;;;;;;;11.40;86.20;;;;;;5034528;28;19939;-73
2022/04/25 00:34:48;;;;;;;;;;;11.30;86.40;;;;;;5034806;28;20155;-73
2022/04/25 00:37:14;;;;;;;;;;;11.30;86.60;;;;;;5034384;28;19919;-72
2022/04/25 00:39:39;;;;;;;;;;;11.30;86.90;;;;;;5034251;28;19921;-73
2022/04/25 00:42:05;;;;;;;;;;;11.20;87.00;;;;;;5034358;28;19917;-74
2022/04/25 00:44:30;;;;;;;;;;;11.30;87.10;;;;;;5030085;28;19909;-74
2022/04/25 00:46:56;;;;;;;;;;;11.20;87.00;;;;;;5015405;28;19906;-74
2022/04/25 00:49:23;;;;;;;;;;;11.20;87.40;;;;;;5034780;28;19920;-74
2022/04/25 00:51:51;;;;;;;;;;;11.10;87.90;;;;;;5034414;28;20369;-74
2022/04/25 00:54:17;;;;;;;;;;;11.10;87.90;;;;;;5034299;28;19922;-74
2022/04/25 00:56:43;;;;;;;;;;;11.10;88.00;;;;;;5034203;28;19913;-75
2022/04/25 00:59:08;;;;;;;;;;;11.10;88.00;;;;;;5033984;28;20586;-74
2022/04/25 01:01:34;;;;;;;;;;;11.00;88.40;;;;;;5034502;28;19905;-73
2022/04/25 01:04:00;;;;;;;;;;;11.00;88.70;;;;;;5029714;28;20331;-74
2022/04/25 01:06:25;;;;;;;;;;;11.10;88.70;;;;;;5027478;28;19909;-74
2022/04/25 01:08:51;;;;;;;;;;;11.10;88.50;;;;;;5033939;28;19924;-73
2022/04/25 01:11:17;;;;;;;;;;;11.10;88.80;;;;;;5029407;28;19928;-74
2022/04/25 01:13:43;;;;;;;;;;;11.00;89.10;;;;;;5013491;28;19910;-74
2022/04/25 01:16:09;;;;;;;;;;;11.00;89.10;;;;;;5033284;28;20008;-74
2022/04/25 01:18:34;;;;;;;;;;;11.00;89.10;;;;;;5033785;28;19909;-74
2022/04/25 01:21:00;;;;;;;;;;;11.00;89.60;;;;;;5033829;28;19987;-74
2022/04/25 01:28:54;;;;;;;;;;;11.00;89.60;;;;;;5033114;28;20002;-75
2022/04/25 01:31:20;;;;;;;;;;;11.00;90.00;;;;;;5033957;28;19964;-74
2022/04/25 01:33:45;;;;;;;;;;;10.90;90.20;;;;;;5033467;28;20306;-74
2022/04/25 01:36:11;;;;;;;;;;;10.90;90.40;;;;;;5044727;28;19920;-74
2022/04/25 01:38:37;;;;;;;;;;;10.80;90.50;;;;;;5053175;28;20370;-75
2022/04/25 01:41:02;;;;;;;;;;;10.80;90.70;;;;;;5053013;28;19921;-75
2022/04/25 01:43:28;;;;;;;;;;;10.80;90.80;;;;;;5053666;28;19947;-74
2022/04/25 01:45:53;;;;;;;;;;;10.80;90.80;;;;;;5052177;28;19991;-75
2022/04/25 01:48:21;;;;;;;;;;;10.80;90.80;;;;;;5051907;28;19913;-74
2022/04/25 01:50:46;;;;;;;;;;;10.80;90.70;;;;;;5053044;28;19909;-74
2022/04/25 01:53:11;;;;;;;;;;;10.80;90.80;;;;;;5052081;28;19919;-75
2022/04/25 01:55:37;;;;;;;;;;;10.80;90.80;;;;;;5052369;28;19983;-75
2022/04/25 01:58:02;;;;;;;;;;;10.80;90.90;;;;;;5052857;28;19909;-73
2022/04/25 02:00:28;;;;;;;;;;;10.70;91.00;;;;;;5052788;28;19971;-74
2022/04/25 02:02:53;;;;;;;;;;;10.80;91.00;;;;;;5053345;28;19912;-75
2022/04/25 02:05:19;;;;;;;;;;;10.80;91.00;;;;;;5053512;28;19913;-74
2022/04/25 02:07:45;;;;;;;;;;;10.80;91.00;;;;;;5053196;28;20414;-74
2022/04/25 02:10:10;;;;;;;;;;;10.80;91.00;;;;;;5052793;28;19913;-74
2022/04/25 02:12:36;;;;;;;;;;;10.90;90.90;;;;;;5052895;28;20030;-74
2022/04/25 02:15:01;;;;;;;;;;;10.90;91.00;;;;;;5052617;28;20405;-75
2022/04/25 02:17:27;;;;;;;;;;;10.80;91.00;;;;;;5052446;28;19923;-74
2022/04/25 02:19:53;;;;;;;;;;;10.90;91.10;;;;;;5052600;28;19969;-73
2022/04/25 02:22:19;;;;;;;;;;;10.90;91.00;;;;;;5052967;28;19912;-73
2022/04/25 02:24:47;;;;;;;;;;;10.90;90.90;;;;;;5052506;28;20005;-73
2022/04/25 02:27:13;;;;;;;;;;;10.80;91.20;;;;;;5052264;28;20171;-74
2022/04/25 02:29:43;;;;;;;;;;;10.80;91.30;;;;;;5052102;28;19912;-74
2022/04/25 02:32:12;;;;;;;;;;;10.80;91.40;;;;;;5051150;28;19916;-75
2022/04/25 02:34:39;;;;;;;;;;;10.80;91.50;;;;;;5052717;28;19992;-75
2022/04/25 02:37:05;;;;;;;;;;;10.80;91.40;;;;;;5051271;28;20413;-75
2022/04/25 02:39:30;;;;;;;;;;;10.80;91.40;;;;;;5052224;28;19921;-75
2022/04/25 02:41:56;;;;;;;;;;;10.80;91.60;;;;;;5051365;28;19909;-74
2022/04/25 02:44:22;;;;;;;;;;;10.80;91.70;;;;;;5051895;28;19995;-75
2022/04/25 02:46:47;;;;;;;;;;;10.90;91.60;;;;;;5052460;28;19966;-75
2022/04/25 02:49:13;;;;;;;;;;;10.90;91.60;;;;;;5051867;28;20239;-75
2022/04/25 02:51:38;;;;;;;;;;;10.80;91.60;;;;;;5052003;28;19944;-74
2022/04/25 02:54:04;;;;;;;;;;;10.80;91.70;;;;;;5051990;28;19999;-74
2022/04/25 02:56:29;;;;;;;;;;;10.80;91.80;;;;;;5051785;28;19909;-75
2022/04/25 02:58:55;;;;;;;;;;;10.80;92.00;;;;;;5051831;28;19905;-74
2022/04/25 03:01:21;;;;;;;;;;;10.70;91.90;;;;;;5052204;28;20040;-75
2022/04/25 03:03:46;;;;;;;;;;;10.80;92.10;;;;;;5051643;28;19908;-74
2022/04/25 03:06:12;;;;;;;;;;;10.70;92.10;;;;;;5051854;28;19932;-74
2022/04/25 03:08:38;;;;;;;;;;;10.70;92.00;;;;;;5051644;28;20039;-74
2022/04/25 03:11:08;;;;;;;;;;;10.70;92.10;;;;;;5050559;28;19904;-75
2022/04/25 03:13:34;;;;;;;;;;;10.60;92.30;;;;;;5052037;28;19908;-75
2022/04/25 03:16:09;;;;;;;;;;;10.60;92.40;;;;;;5051655;28;19999;-75
2022/04/25 03:18:35;;;;;;;;;;;10.60;92.30;;;;;;5051540;28;19909;-74
2022/04/25 03:21:01;;;;;;;;;;;10.60;92.40;;;;;;5051695;28;19908;-74
2022/04/25 03:23:27;;;;;;;;;;;10.60;92.60;;;;;;5051516;28;19909;-74
2022/04/25 03:25:52;;;;;;;;;;;10.50;92.80;;;;;;5051520;28;19913;-74
2022/04/25 03:28:18;;;;;;;;;;;10.50;93.00;;;;;;5051652;28;19915;-74
2022/04/25 03:30:44;;;;;;;;;;;10.40;93.10;;;;;;5051423;28;20007;-74
2022/04/25 03:33:12;;;;;;;;;;;10.40;93.10;;;;;;5051211;28;19916;-75
2022/04/25 03:35:38;;;;;;;;;;;10.50;93.20;;;;;;5051243;28;19913;-74
2022/04/25 03:38:06;;;;;;;;;;;10.50;93.10;;;;;;5051219;28;19940;-74
2022/04/25 03:40:31;;;;;;;;;;;10.50;93.20;;;;;;5051371;28;19916;-74
2022/04/25 03:42:57;;;;;;;;;;;10.50;93.20;;;;;;5050021;28;19940;-74
2022/04/25 03:45:22;;;;;;;;;;;10.50;93.10;;;;;;5050022;28;19920;-74
2022/04/25 03:47:48;;;;;;;;;;;10.50;93.20;;;;;;5050947;28;20010;-75
2022/04/25 03:50:14;;;;;;;;;;;10.50;93.20;;;;;;5050846;28;19954;-74
2022/04/25 03:52:41;;;;;;;;;;;10.40;93.30;;;;;;5051714;28;19905;-75
2022/04/25 03:57:51;;;;;;;;;;;10.30;93.50;;;;;;5055073;28;19919;-74
2022/04/25 04:00:17;;;;;;;;;;;10.20;93.60;;;;;;5055092;28;20461;-74
2022/04/25 04:02:43;;;;;;;;;;;10.20;93.70;;;;;;5055043;28;19984;-75
2022/04/25 04:05:08;;;;;;;;;;;10.20;93.80;;;;;;5053862;28;19904;-75
2022/04/25 04:07:34;;;;;;;;;;;10.20;93.90;;;;;;5055297;28;19931;-75
2022/04/25 04:09:59;;;;;;;;;;;10.10;94.00;;;;;;5054772;28;20354;-75
2022/04/25 04:12:29;;;;;;;;;;;10.20;93.90;;;;;;5055050;28;19909;-74
2022/04/25 04:14:55;;;;;;;;;;;10.20;93.90;;;;;;5054609;28;19944;-74
2022/04/25 04:17:20;;;;;;;;;;;10.20;93.80;;;;;;5054693;28;19913;-74
2022/04/25 04:19:48;;;;;;;;;;;10.30;93.80;;;;;;5055078;28;19987;-74
2022/04/25 04:22:14;;;;;;;;;;;10.30;93.70;;;;;;5054764;28;20085;-74
2022/04/25 04:24:40;;;;;;;;;;;10.30;93.80;;;;;;5054546;28;20147;-73
2022/04/25 04:27:06;;;;;;;;;;;10.20;93.90;;;;;;5054348;28;19996;-74
2022/04/25 04:29:32;;;;;;;;;;;10.20;93.90;;;;;;5054213;28;19917;-74
2022/04/25 04:32:02;;;;;;;;;;;10.20;94.10;;;;;;5054220;28;19909;-74
2022/04/25 04:34:28;;;;;;;;;;;10.20;94.00;;;;;;5054700;28;20318;-74
2022/04/25 04:36:54;;;;;;;;;;;10.20;94.20;;;;;;5053103;28;20278;-75
2022/04/25 04:39:20;;;;;;;;;;;10.20;94.20;;;;;;5052807;28;19916;-75
2022/04/25 04:41:46;;;;;;;;;;;10.20;94.20;;;;;;5054060;28;19916;-75
2022/04/25 04:44:12;;;;;;;;;;;10.20;94.10;;;;;;5053942;28;19908;-74
2022/04/25 04:46:37;;;;;;;;;;;10.20;94.20;;;;;;5054505;28;19909;-74
2022/04/25 04:49:03;;;;;;;;;;;10.20;94.20;;;;;;5054172;28;19935;-75
2022/04/25 04:51:29;;;;;;;;;;;10.20;94.20;;;;;;5054054;28;19952;-75
2022/04/25 04:53:54;;;;;;;;;;;10.30;94.00;;;;;;5052815;28;20331;-75
2022/04/25 04:56:19;;;;;;;;;;;10.30;93.90;;;;;;5053863;28;19966;-74
2022/04/25 04:58:48;;;;;;;;;;;10.20;93.80;;;;;;5054254;28;19912;-75
2022/04/25 05:01:13;;;;;;;;;;;10.20;93.90;;;;;;5053820;28;19936;-74
2022/04/25 05:03:41;;;;;;;;;;;10.10;94.00;;;;;;5053207;28;20278;-75
2022/04/25 05:06:07;;;;;;;;;;;10.00;94.20;;;;;;5053594;28;19908;-75
2022/04/25 05:08:32;;;;;;;;;;;10.10;94.20;;;;;;5053706;28;19921;-75
2022/04/25 05:10:58;;;;;;;;;;;10.10;94.10;;;;;;5053630;28;19904;-73
2022/04/25 05:13:23;;;;;;;;;;;10.10;94.20;;;;;;5053999;28;19904;-74
2022/04/25 05:15:49;;;;;;;;;;;10.10;94.20;;;;;;5053650;28;20402;-75
2022/04/25 05:18:15;;;;;;;;;;;10.10;94.30;;;;;;5052584;28;19917;-75
2022/04/25 05:20:41;;;;;;;;;;;10.20;94.40;;;;;;5053636;28;20330;-74
2022/04/25 05:23:10;;;;;;;;;;;10.10;94.30;;;;;;5052309;28;19958;-75
2022/04/25 05:25:38;;;;;;;;;;;10.20;94.30;;;;;;5053987;28;19901;-75
2022/04/25 05:28:04;;;;;;;;;;;10.10;94.50;;;;;;5053398;28;19935;-75
2022/04/25 05:30:30;;;;;;;;;;;10.10;94.50;;;;;;5053316;28;19908;-75
2022/04/25 05:32:57;;;;;;;;;;;10.10;94.50;;;;;;5053404;28;20311;-74
2022/04/25 05:35:23;;;;;;;;;;;10.10;94.60;;;;;;5053103;28;20188;-74
2022/04/25 05:37:49;;;;;;;;;;;10.10;94.60;;;;;;5053118;28;19908;-73
2022/04/25 05:40:16;;;;;;;;;;;10.30;94.80;;;;;;5053278;28;20377;-74
2022/04/25 05:42:42;;;;;;;;;;;10.20;94.90;;;;;;5053079;28;19958;-76
2022/04/25 05:45:09;;;;;;;;;;;10.20;94.90;;;;;;5053115;28;19920;-75
2022/04/25 05:47:35;;;;;;;;;;;10.30;94.90;;;;;;5053115;28;20227;-74
2022/04/25 05:52:49;;;;;;;;;;;10.20;95.50;;;;;;5053709;28;19958;-74
2022/04/25 05:55:14;;;;;;;;;;;10.20;96.10;;;;;;5053112;28;19917;-75
2022/04/25 05:57:40;;;;;;;;;;;10.30;96.40;;;;;;5052760;28;19909;-74
2022/04/25 06:00:07;;;;;;;;;;;10.30;96.70;;;;;;5052593;28;19909;-75
2022/04/25 06:02:42;;;;;;;;;;;10.30;96.70;;;;;;5052886;28;19999;-75
2022/04/25 06:05:11;;;;;;;;;;;10.30;96.60;;;;;;5052697;28;19919;-75
2022/04/25 06:07:38;;;;;;;;;;;10.20;96.20;;;;;;5052924;28;20315;-75
2022/04/25 06:10:04;;;;;;;;;;;10.30;96.50;;;;;;5052671;28;19908;-75
2022/04/25 06:12:29;;;;;;;;;;;10.30;96.50;;;;;;5052578;28;19909;-75
2022/04/25 06:15:00;;;;;;;;;;;10.30;96.80;;;;;;5052490;28;20053;-76
2022/04/25 06:17:26;;;;;;;;;;;10.30;96.90;;;;;;5051735;28;19927;-76
2022/04/25 06:19:51;;;;;;;;;;;10.30;96.90;;;;;;5052348;28;19972;-74
2022/04/25 06:22:17;;;;;;;;;;;10.30;97.10;;;;;;5052708;28;19901;-75
2022/04/25 06:24:43;;;;;;;;;;;10.40;97.20;;;;;;5052171;28;19923;-75
2022/04/25 06:27:09;;;;;;;;;;;10.40;97.60;;;;;;5052027;28;19987;-74
2022/04/25 06:29:35;;;;;;;;;;;10.40;97.10;;;;;;5052260;28;20063;-75
2022/04/25 06:32:03;;;;;;;;;;;10.40;97.20;;;;;;5052067;28;19904;-74
2022/04/25 06:34:28;;;;;;;;;;;10.50;97.20;;;;;;5052402;28;19991;-75
2022/04/25 06:36:54;;;;;;;;;;;10.40;97.20;;;;;;5051906;28;19992;-76
2022/04/25 06:39:19;;;;;;;;;;;10.50;97.20;;;;;;5051601;28;19960;-74
2022/04/25 06:41:46;;;;;;;;;;;10.40;96.90;;;;;;5050487;28;19917;-75
2022/04/25 06:44:14;;;;;;;;;;;10.40;97.00;;;;;;5050325;28;19964;-75
2022/04/25 06:46:40;;;;;;;;;;;10.40;97.00;;;;;;5051136;28;19970;-75
2022/04/25 06:49:21;;;;;;;;;;;10.30;97.20;;;;;;5051870;28;20329;-74
2022/04/25 06:51:47;;;;;;;;;;;10.30;97.60;;;;;;5051771;28;19916;-75
2022/04/25 06:54:13;;;;;;;;;;;10.30;97.60;;;;;;5051483;28;19967;-75
2022/04/25 06:56:39;;;;;;;;;;;10.40;98.00;;;;;;5051598;28;20349;-75
2022/04/25 06:59:05;;;;;;;;;;;10.30;98.30;;;;;;5051844;28;19904;-74
2022/04/25 07:01:30;;;;;;;;;;;10.40;98.20;;;;;;5052006;28;19940;-75
2022/04/25 07:03:56;;;;;;;;;;;10.30;97.60;;;;;;5051370;28;19908;-75
2022/04/25 07:06:21;;;;;;;;;;;10.30;97.70;;;;;;5051443;28;19917;-74
2022/04/25 07:08:47;;;;;;;;;;;10.30;97.90;;;;;;5051514;28;19928;-75
2022/04/25 07:11:12;;;;;;;;;;;10.30;97.90;;;;;;5051281;28;19948;-75
2022/04/25 07:13:41;;;;;;;;;;;10.30;97.70;;;;;;5051673;28;19905;-76
2022/04/25 07:16:08;;;;;;;;;;;10.30;97.40;;;;;;5051362;28;19916;-75
2022/04/25 07:18:34;;;;;;;;;;;10.20;97.20;;;;;;5050041;28;20008;-75
2022/04/25 07:28:48;;;;;;;;;;;10.20;97.20;;;;;;5051254;28;20377;-76
2022/04/25 07:29:15;;;;;;;;;;;10.10;97.20;;;;;;5051164;28;19974;-75
2022/04/25 07:31:41;;;;;;;;;;;10.10;97.50;;;;;;5050236;28;19909;-74
2022/04/25 07:34:06;;;;;;;;;;;10.10;97.60;;;;;;5051015;28;20672;-73
2022/04/25 07:36:32;;;;;;;;;;;10.10;97.60;;;;;;5051064;28;20348;-75
2022/04/25 07:38:57;;;;;;;;;;;10.10;97.60;;;;;;5050712;28;19923;-74
2022/04/25 07:41:25;;;;;;;;;;;10.20;97.80;;;;;;5051002;28;19948;-75
2022/04/25 07:43:51;;;;;;;;;;;10.10;97.60;;;;;;5050972;28;20247;-75
2022/04/25 07:46:20;;;;;;;;;;;10.10;97.90;;;;;;5050671;28;19917;-75
2022/04/25 07:48:46;;;;;;;;;;;10.10;97.60;;;;;;5050836;28;19921;-75
2022/04/25 07:51:11;;;;;;;;;;;10.20;97.60;;;;;;5050963;28;20007;-74
2022/04/25 07:53:36;;;;;;;;;;;10.10;97.60;;;;;;5050900;28;20399;-74
2022/04/25 07:56:05;;;;;;;;;;;10.10;98.00;;;;;;5050057;28;19913;-74
2022/04/25 07:58:30;;;;;;;;;;;10.10;97.80;;;;;;5051245;28;19959;-75
2022/04/25 08:00:56;;;;;;;;;;;10.20;98.20;;;;;;5051302;28;19952;-75
2022/04/25 08:03:22;;;;;;;;;;;10.20;97.90;;;;;;5050710;28;19932;-74
2022/04/25 08:05:47;;;;;;;;;;;10.20;97.50;;;;;;5051134;28;19913;-75
2022/04/25 08:08:13;;;;;;;;;;;10.20;97.70;;;;;;5050632;28;19912;-74
2022/04/25 08:10:39;;;;;;;;;;;10.30;97.80;;;;;;5051169;28;20331;-74
2022/04/25 08:18:32;;;;;;;;;;;10.40;98.00;;;;;;5050792;28;19977;-76
2022/04/25 08:20:58;;;;;;;;;;;10.40;97.90;;;;;;5051012;28;19909;-75
2022/04/25 08:23:23;;;;;;;;;;;10.50;97.60;;;;;;5049596;28;19916;-75
2022/04/25 08:25:49;;;;;;;;;;;10.50;97.90;;;;;;5050968;28;19912;-75
2022/04/25 08:28:15;;;;;;;;;;;10.50;97.80;;;;;;5049594;28;19924;-74
2022/04/25 08:30:40;;;;;;;;;;;10.50;97.50;;;;;;5050483;28;20270;-74
2022/04/25 08:33:08;;;;;;;;;;;10.60;97.50;;;;;;5050819;28;19908;-74
2022/04/25 08:35:34;;;;;;;;;;;10.50;97.20;;;;;;5050368;28;20240;-75
2022/04/25 08:37:59;;;;;;;;;;;10.50;97.10;;;;;;5050416;28;19916;-75
2022/04/25 08:40:26;;;;;;;;;;;10.50;97.50;;;;;;5053225;28;19970;-75
2022/04/25 08:42:53;;;;;;;;;;;10.60;97.50;;;;;;5054290;28;19978;-74
2022/04/25 08:45:20;;;;;;;;;;;10.60;97.60;;;;;;5053199;28;19913;-74
2022/04/25 08:47:47;;;;;;;;;;;10.60;97.90;;;;;;5054178;28;20404;-74
2022/04/25 08:50:15;;;;;;;;;;;10.70;97.30;;;;;;5053080;28;19916;-74
2022/04/25 08:52:41;;;;;;;;;;;10.70;97.00;;;;;;5053481;28;19905;-76
2022/04/25 08:55:07;;;;;;;;;;;10.70;96.90;;;;;;5053883;28;19995;-74
2022/04/25 08:57:35;;;;;;;;;;;10.70;96.90;;;;;;5053916;28;19970;-75
2022/04/25 09:00:04;;;;;;;;;;;10.80;96.60;;;;;;5052994;28;20254;-74
2022/04/25 09:02:29;;;;;;;;;;;10.80;96.80;;;;;;5053873;28;19915;-74
2022/04/25 09:04:55;;;;;;;;;;;11.00;97.20;;;;;;5053847;28;20249;-75
2022/04/25 09:07:21;;;;;;;;;;;11.10;96.50;;;;;;5054168;28;19905;-74
2022/04/25 09:09:46;;;;;;;;;;;11.20;96.10;;;;;;5053623;28;19945;-74
2022/04/25 09:12:15;;;;;;;;;;;11.20;96.10;;;;;;5053894;28;19923;-73
2022/04/25 09:14:42;;;;;;;;;;;11.30;96.20;;;;;;5053652;28;19908;-74
2022/04/25 09:17:08;;;;;;;;;;;11.30;96.50;;;;;;5053546;28;19909;-74
2022/04/25 09:19:37;;;;;;;;;;;11.20;96.00;;;;;;5053042;28;19912;-74
2022/04/25 09:22:03;;;;;;;;;;;11.20;96.70;;;;;;5052375;28;19913;-74
2022/04/25 09:24:29;;;;;;;;;;;11.20;96.50;;;;;;5053518;28;20357;-75
2022/04/25 09:27:08;;;;;;;;;;;11.20;96.60;;;;;;5053192;28;19995;-74
2022/04/25 09:29:34;;;;;;;;;;;11.30;96.50;;;;;;5053138;28;19924;-74
2022/04/25 09:32:00;;;;;;;;;;;11.30;96.40;;;;;;5053174;28;20319;-74
2022/04/25 09:37:12;;;;;;;;;;;11.30;95.90;;;;;;5053229;28;19915;-75
2022/04/25 09:39:37;;;;;;;;;;;11.30;95.80;;;;;;5052834;28;19951;-74
2022/04/25 09:42:03;;;;;;;;;;;11.40;96.10;;;;;;5053190;28;19951;-74
2022/04/25 09:44:49;;;;;;;;;;;11.30;96.00;;;;;;5053173;28;19916;-75
2022/04/25 09:47:23;;;;;;;;;;;11.30;95.80;;;;;;5052899;28;19908;-74
2022/04/25 09:50:18;;;;;;;;;;;11.30;95.80;;;;;;5053203;28;20506;-74
2022/04/25 09:52:57;;;;;;;;;;;11.30;95.80;;;;;;5044057;28;19986;-73
2022/04/25 09:55:25;;;;;;;;;;;11.30;95.80;;;;;;5052870;28;20223;-74
2022/04/25 09:57:50;;;;;;;;;;;11.30;95.50;;;;;;5052925;28;19909;-75
2022/04/25 10:00:28;;;;;;;;;;;11.30;95.50;;;;;;5052856;28;20361;-75
2022/04/25 10:02:54;;;;;;;;;;;11.30;95.50;;;;;;5051780;28;19916;-75
2022/04/25 10:05:19;;;;;;;;;;;11.50;95.80;;;;;;5052633;28;19909;-74
2022/04/25 10:07:45;;;;;;;;;;;11.40;95.70;;;;;;5052925;28;19957;-74
2022/04/25 10:10:11;;;;;;;;;;;11.40;95.60;;;;;;5052538;28;19912;-74
2022/04/25 10:12:37;;;;;;;;;;;11.40;95.70;;;;;;5052663;28;19920;-73
2022/04/25 10:15:06;;;;;;;;;;;11.50;95.80;;;;;;5052386;28;19916;-73
2022/04/25 10:17:32;;;;;;;;;;;11.40;95.80;;;;;;5052475;28;20378;-74
2022/04/25 10:20:01;;;;;;;;;;;11.50;95.90;;;;;;5052051;28;19919;-74
2022/04/25 10:22:26;;;;;;;;;;;11.50;95.90;;;;;;5052677;28;19912;-74
2022/04/25 10:24:52;;;;;;;;;;;11.50;95.70;;;;;;5052153;28;20058;-74
2022/04/25 10:27:18;;;;;;;;;;;11.60;95.70;;;;;;5052132;28;19988;-74
2022/04/25 10:29:46;;;;;;;;;;;11.60;95.30;;;;;;5051129;28;19913;-74
2022/04/25 10:32:12;;;;;;;;;;;11.60;95.30;;;;;;5052281;28;19919;-74
2022/04/25 10:34:51;;;;;;;;;;;11.60;95.20;;;;;;5052738;28;20212;-74
2022/04/25 10:37:29;;;;;;;;;;;11.60;95.30;;;;;;5052040;28;19909;-73
2022/04/25 10:39:55;;;;;;;;;;;11.70;95.10;;;;;;5051709;28;19924;-75
2022/04/25 10:45:05;;;;;;;;;;;11.70;94.90;;;;;;5051984;28;19919;-74
2022/04/25 10:47:30;;;;;;;;;;;11.70;94.90;;;;;;5050913;28;19909;-74
2022/04/25 10:49:56;;;;;;;;;;;11.80;94.80;;;;;;5051750;28;19905;-74
2022/04/25 10:52:34;;;;;;;;;;;11.80;94.90;;;;;;5052004;28;20250;-74
2022/04/25 10:55:23;;;;;;;;;;;11.80;94.80;;;;;;5051573;28;19915;-73
2022/04/25 10:58:13;;;;;;;;;;;11.90;94.70;;;;;;5051527;28;19916;-75
2022/04/25 11:00:44;;;;;;;;;;;11.90;94.60;;;;;;5051300;28;19995;-72
2022/04/25 11:03:11;;;;;;;;;;;12.00;94.50;;;;;;5051024;28;19962;-74
2022/04/25 11:05:37;;;;;;;;;;;12.00;94.30;;;;;;5051444;28;19919;-74
2022/04/25 11:08:18;;;;;;;;;;;12.00;94.50;;;;;;5051381;28;19916;-74
2022/04/25 11:10:47;;;;;;;;;;;12.10;94.50;;;;;;5051819;28;20306;-74
2022/04/25 11:13:14;;;;;;;;;;;12.10;94.30;;;;;;5050299;28;20399;-74
2022/04/25 11:15:40;;;;;;;;;;;12.20;94.30;;;;;;5051511;28;19909;-72
2022/04/25 11:18:30;;;;;;;;;;;12.30;94.20;;;;;;5051618;28;19909;-74
2022/04/25 11:20:55;;;;;;;;;;;12.30;94.10;;;;;;5051314;28;20223;-73
2022/04/25 11:23:31;;;;;;;;;;;12.30;93.80;;;;;;5050044;28;20374;-73
2022/04/25 11:25:57;;;;;;;;;;;12.30;93.70;;;;;;5051309;28;19905;-73
2022/04/25 11:28:23;;;;;;;;;;;12.30;93.80;;;;;;5051566;28;20299;-74
2022/04/25 11:31:07;;;;;;;;;;;12.30;93.40;;;;;;5050976;28;20343;-74
2022/04/25 11:34:02;;;;;;;;;;;12.40;93.80;;;;;;5049802;28;19917;-75
2022/04/25 11:36:29;;;;;;;;;;;12.50;93.40;;;;;;5049619;28;20382;-74
2022/04/25 11:41:59;;;;;;;;;;;12.60;93.00;;;;;;4989513;28;19968;-73
2022/04/25 11:44:25;;;;;;;;;;;12.50;93.10;;;;;;4989546;28;19913;-73
2022/04/25 11:46:51;;;;;;;;;;;12.60;92.90;;;;;;5017577;28;19916;-74
2022/04/25 11:49:27;;;;;;;;;;;12.60;93.20;;;;;;5050234;28;19920;-74
2022/04/25 11:51:52;;;;;;;;;;;12.80;93.10;;;;;;5050964;28;19913;-74
2022/04/25 11:54:20;;;;;;;;;;;12.80;92.90;;;;;;5050572;28;19959;-74
2022/04/25 11:56:46;;;;;;;;;;;12.80;92.80;;;;;;5049733;28;19908;-73
2022/04/25 11:59:12;;;;;;;;;;;12.90;92.80;;;;;;5049577;28;20369;-74
2022/04/25 12:01:39;;;;;;;;;;;12.90;92.80;;;;;;5051260;28;20341;-73
2022/04/25 12:04:16;;;;;;;;;;;12.90;92.70;;;;;;5050871;28;19948;-74
2022/04/25 12:06:58;;;;;;;;;;;12.90;92.80;;;;;;5049861;28;20011;-74
2022/04/25 12:17:43;;;;;;;;;;;13.00;92.60;;;;;;5054804;28;19920;-75
2022/04/25 12:20:12;;;;;;;;;;;13.00;92.60;;;;;;5054589;28;19909;-74
2022/04/25 12:22:39;;;;;;;;;;;13.00;92.50;;;;;;5055095;28;19958;-74
2022/04/25 12:25:11;;;;;;;;;;;13.00;92.50;;;;;;5054559;28;19974;-74
2022/04/25 12:27:36;;;;;;;;;;;12.90;92.40;;;;;;5054653;28;19919;-74
2022/04/25 12:30:08;;;;;;;;;;;12.90;92.60;;;;;;5054717;28;20407;-74
2022/04/25 12:32:34;;;;;;;;;;;12.90;92.60;;;;;;5054528;28;20000;-74
2022/04/25 12:35:00;;;;;;;;;;;13.00;92.60;;;;;;5054399;28;20350;-74
2022/04/25 12:37:25;;;;;;;;;;;13.00;92.50;;;;;;5054763;28;19907;-74
2022/04/25 12:40:04;;;;;;;;;;;13.10;92.60;;;;;;5054126;28;19916;-74
2022/04/25 12:42:46;;;;;;;;;;;12.90;92.40;;;;;;5054235;28;19975;-75
2022/04/25 12:45:12;;;;;;;;;;;12.90;92.50;;;;;;5054355;28;19908;-73
2022/04/25 12:47:42;;;;;;;;;;;13.10;92.60;;;;;;5054456;28;19912;-74
2022/04/25 12:50:08;;;;;;;;;;;13.10;92.40;;;;;;5053008;28;19915;-73
2022/04/25 12:52:51;;;;;;;;;;;13.10;92.30;;;;;;5054383;28;19979;-75
2022/04/25 12:55:17;;;;;;;;;;;13.10;92.20;;;;;;5053993;28;19970;-74
2022/04/25 12:57:51;;;;;;;;;;;13.00;92.20;;;;;;5054172;28;19920;-73
2022/04/25 13:00:17;;;;;;;;;;;13.00;92.30;;;;;;5052838;28;19920;-74
2022/04/25 13:02:42;;;;;;;;;;;13.10;92.30;;;;;;5052525;28;19917;-74
2022/04/25 13:05:09;;;;;;;;;;;12.90;92.00;;;;;;5053683;28;20338;-74
2022/04/25 13:07:37;;;;;;;;;;;13.00;92.10;;;;;;5053923;28;19911;-73
2022/04/25 13:10:04;;;;;;;;;;;13.00;92.10;;;;;;5053657;28;19920;-74
2022/04/25 13:12:36;;;;;;;;;;;13.00;91.90;;;;;;5052425;28;19909;-73
2022/04/25 13:15:03;;;;;;;;;;;13.00;91.90;;;;;;5053576;28;20000;-74
2022/04/25 13:17:28;;;;;;;;;;;13.20;92.00;;;;;;5053390;28;20054;-74
2022/04/25 13:19:54;;;;;;;;;;;13.20;91.70;;;;;;5053422;28;19908;-75
2022/04/25 13:22:20;;;;;;;;;;;13.10;91.80;;;;;;5053922;28;19901;-74
2022/04/25 13:24:46;;;;;;;;;;;13.20;91.90;;;;;;5052892;28;20364;-73
2022/04/25 13:27:12;;;;;;;;;;;13.40;91.70;;;;;;5052263;28;19940;-74
2022/04/25 13:29:38;;;;;;;;;;;13.60;91.50;;;;;;5052081;28;19979;-74
2022/04/25 13:32:04;;;;;;;;;;;13.60;91.10;;;;;;5052367;28;19915;-74
2022/04/25 13:34:29;;;;;;;;;;;13.60;91.00;;;;;;5053798;28;20350;-74
2022/04/25 13:36:55;;;;;;;;;;;13.40;91.10;;;;;;5052259;28;20003;-74
2022/04/25 13:39:21;;;;;;;;;;;13.40;91.10;;;;;;5053070;28;19913;-75
2022/04/25 13:41:47;;;;;;;;;;;13.30;91.10;;;;;;5053280;28;20375;-75
2022/04/25 13:44:12;;;;;;;;;;;13.50;91.20;;;;;;5052938;28;19916;-73
2022/04/25 13:46:40;;;;;;;;;;;13.60;91.20;;;;;;5053530;28;19917;-74
2022/04/25 13:49:06;;;;;;;;;;;13.50;90.90;;;;;;5052822;28;19924;-73
2022/04/25 13:51:32;;;;;;;;;;;13.50;91.10;;;;;;5052929;28;19927;-74
2022/04/25 13:53:57;;;;;;;;;;;13.60;91.10;;;;;;5052788;28;20540;-74
2022/04/25 13:56:23;;;;;;;;;;;13.60;91.00;;;;;;5053012;28;19909;-74
2022/04/25 13:58:49;;;;;;;;;;;13.50;91.00;;;;;;5053024;28;19904;-73
2022/04/25 14:01:15;;;;;;;;;;;13.70;91.00;;;;;;5053280;28;19908;-73
2022/04/25 14:03:41;;;;;;;;;;;13.70;90.80;;;;;;5053053;28;19908;-74
2022/04/25 14:06:06;;;;;;;;;;;13.70;90.80;;;;;;5052900;28;19995;-73
2022/04/25 14:08:32;;;;;;;;;;;13.70;90.80;;;;;;5052659;28;20016;-74
2022/04/25 14:10:58;;;;;;;;;;;13.70;90.70;;;;;;5051605;28;19958;-73
2022/04/25 14:13:25;;;;;;;;;;;13.70;90.70;;;;;;5052896;28;19919;-73
2022/04/25 14:15:51;;;;;;;;;;;13.70;90.90;;;;;;5051336;28;20040;-75
2022/04/25 14:18:18;;;;;;;;;;;13.70;90.60;;;;;;5052164;28;20341;-74
2022/04/25 14:20:43;;;;;;;;;;;13.80;90.60;;;;;;5052028;28;19920;-74
2022/04/25 14:23:09;;;;;;;;;;;13.80;90.40;;;;;;5052268;28;19916;-75
2022/04/25 14:25:36;;;;;;;;;;;13.90;90.40;;;;;;5052526;28;19958;-73
2022/04/25 14:28:03;;;;;;;;;;;14.00;90.20;;;;;;5052187;28;19985;-73
2022/04/25 14:30:29;;;;;;;;;;;14.10;90.10;;;;;;5052066;28;20250;-74
2022/04/25 14:32:55;;;;;;;;;;;14.20;90.10;;;;;;5051793;28;19909;-74
2022/04/25 14:35:21;;;;;;;;;;;14.20;89.90;;;;;;5051722;28;19959;-74
2022/04/25 14:37:46;;;;;;;;;;;14.30;89.70;;;;;;5051795;28;20278;-74
2022/04/25 14:40:12;;;;;;;;;;;14.30;89.60;;;;;;5051412;28;20014;-73
2022/04/25 14:42:38;;;;;;;;;;;14.40;89.50;;;;;;5052016;28;19912;-73
2022/04/25 14:45:04;;;;;;;;;;;14.40;89.50;;;;;;5051846;28;20326;-73
2022/04/25 14:47:29;;;;;;;;;;;14.40;89.40;;;;;;5051807;28;20303;-74
2022/04/25 14:55:24;;;;;;;;;;;14.30;89.20;;;;;;5051931;28;19928;-73
2022/04/25 14:57:50;;;;;;;;;;;14.30;89.30;;;;;;5050699;28;19908;-73
2022/04/25 15:00:19;;;;;;;;;;;14.20;88.70;;;;;;5051521;28;20000;-74